Time;durP1;ratioP1;P1;durP2;ratioP2;P2;SDS_P1;SDS_P2;PMS_P1;PMS_P2;Temp;Humidity;BMP_temperature;BMP_pressure;BME280_temperature;BME280_humidity;BME280_pressure;Samples;Min_cycle;Max_cycle;Signal;HPM_P1;HPM_P2
2023/07/25 00:00:49;;;;;;;0.10;0.10;;;;;;;;;;6248932;22;20004;-93
2023/07/25 00:03:27;;;;;;;0.10;0.10;;;;;;;;;;6297248;22;20038;-91
2023/07/25 00:06:11;;;;;;;0.00;0.00;;;;;;;;;;6296302;22;20019;-91
2023/07/25 00:08:38;;;;;;;0.15;0.15;;;;;;;;;;6273327;22;20000;-90
2023/07/25 00:11:07;;;;;;;0.10;0.10;;;;;;;;;;6256900;22;20071;-86
2023/07/25 00:13:38;;;;;;;0.20;0.20;;;;;;;;;;6257281;22;20023;-87
2023/07/25 00:16:05;;;;;;;0.10;0.10;;;;;;;;;;6256910;22;20012;-86
2023/07/25 00:18:34;;;;;;;0.10;0.10;;;;;;;;;;6266132;22;20027;-87
2023/07/25 00:21:00;;;;;;;0.20;0.20;;;;;;;;;;6257875;22;20019;-88
2023/07/25 00:23:32;;;;;;;0.20;0.20;;;;;;;;;;6259070;22;20018;-86
2023/07/25 00:26:04;;;;;;;0.10;0.10;;;;;;;;;;6265112;22;20019;-87
2023/07/25 00:28:34;;;;;;;0.20;0.20;;;;;;;;;;6256382;22;20020;-86
2023/07/25 00:31:05;;;;;;;0.13;0.13;;;;;;;;;;6257603;22;20015;-85
2023/07/25 00:33:54;;;;;;;0.20;0.20;;;;;;;;;;6270545;22;20076;-85
2023/07/25 00:36:23;;;;;;;0.10;0.10;;;;;;;;;;6257234;22;20037;-85
2023/07/25 00:38:54;;;;;;;0.20;0.20;;;;;;;;;;6283821;22;20063;-86
2023/07/25 00:41:29;;;;;;;0.10;0.10;;;;;;;;;;6258681;22;20016;-86
2023/07/25 00:44:14;;;;;;;0.20;0.20;;;;;;;;;;6256544;22;20059;-86
2023/07/25 00:46:52;;;;;;;0.30;0.30;;;;;;;;;;6286403;22;20016;-87
2023/07/25 00:49:21;;;;;;;0.20;0.20;;;;;;;;;;6272246;22;20020;-91
2023/07/25 00:52:35;;;;;;;0.10;0.10;;;;;;;;;;6298275;22;20040;-92
2023/07/25 00:55:08;;;;;;;0.20;0.20;;;;;;;;;;6269629;22;20045;-91
2023/07/25 00:58:03;;;;;;;0.20;0.20;;;;;;;;;;6299326;22;20105;-90
2023/07/25 01:00:29;;;;;;;0.10;0.10;;;;;;;;;;6271712;22;20039;-91
2023/07/25 01:03:18;;;;;;;0.10;0.10;;;;;;;;;;6271632;22;20319;-92
2023/07/25 01:05:51;;;;;;;0.20;0.20;;;;;;;;;;6251457;22;20016;-91
2023/07/25 01:08:17;;;;;;;0.20;0.20;;;;;;;;;;6272902;22;20048;-90
2023/07/25 01:10:47;;;;;;;0.20;0.20;;;;;;;;;;6247220;22;20031;-93
2023/07/25 01:13:32;;;;;;;0.10;0.10;;;;;;;;;;6295454;22;20008;-90
2023/07/25 01:19:37;;;;;;;0.10;0.10;;;;;;;;;;6306989;22;20019;-90
2023/07/25 01:22:08;;;;;;;0.22;0.22;;;;;;;;;;6249824;22;20008;-91
2023/07/25 01:24:59;;;;;;;0.20;0.20;;;;;;;;;;6296949;22;20021;-92
2023/07/25 01:27:32;;;;;;;0.10;0.10;;;;;;;;;;6255522;22;20008;-94
2023/07/25 01:30:04;;;;;;;0.10;0.10;;;;;;;;;;6272311;22;20031;-93
2023/07/25 01:32:33;;;;;;;0.20;0.20;;;;;;;;;;6270647;22;20004;-91
2023/07/25 01:35:11;;;;;;;0.10;0.10;;;;;;;;;;6272547;22;20023;-92
2023/07/25 01:37:38;;;;;;;0.30;0.30;;;;;;;;;;6294061;22;20019;-88
2023/07/25 01:40:32;;;;;;;0.10;0.10;;;;;;;;;;6296552;22;20022;-93
2023/07/25 01:43:02;;;;;;;0.20;0.20;;;;;;;;;;6293099;22;20031;-93
2023/07/25 01:45:28;;;;;;;0.10;0.10;;;;;;;;;;6245114;22;20012;-91
2023/07/25 01:47:57;;;;;;;0.20;0.20;;;;;;;;;;6243092;22;20050;-90
2023/07/25 01:50:26;;;;;;;0.13;0.13;;;;;;;;;;6271735;22;20063;-91
2023/07/25 01:52:54;;;;;;;0.15;0.15;;;;;;;;;;6216990;22;20027;-91
2023/07/25 01:55:32;;;;;;;0.20;0.20;;;;;;;;;;6273162;22;20232;-89
2023/07/25 01:57:58;;;;;;;0.30;0.30;;;;;;;;;;6244306;22;20044;-90
2023/07/25 02:00:25;;;;;;;0.30;0.30;;;;;;;;;;6272091;22;20020;-90
2023/07/25 02:02:52;;;;;;;0.20;0.20;;;;;;;;;;6250219;22;20014;-90
2023/07/25 02:05:30;;;;;;;0.30;0.30;;;;;;;;;;6250349;22;20025;-92
2023/07/25 02:08:06;;;;;;;0.28;0.28;;;;;;;;;;6273534;22;20008;-92
2023/07/25 02:10:32;;;;;;;;;;;;;;;;;;6247651;22;20080;-92
2023/07/25 02:13:18;;;;;;;0.20;0.20;;;;;;;;;;6297936;22;19955;-90
2023/07/25 02:15:49;;;;;;;0.10;0.10;;;;;;;;;;6248730;22;20050;-91
2023/07/25 02:18:18;;;;;;;0.20;0.20;;;;;;;;;;6270707;22;20057;-92
2023/07/25 02:20:47;;;;;;;0.10;0.10;;;;;;;;;;6247218;22;20047;-91
2023/07/25 02:23:32;;;;;;;0.10;0.10;;;;;;;;;;6276136;22;20032;-92
2023/07/25 02:26:01;;;;;;;0.17;0.17;;;;;;;;;;6247263;22;20019;-91
2023/07/25 02:28:30;;;;;;;0.15;0.15;;;;;;;;;;6247647;22;20023;-91
2023/07/25 02:31:03;;;;;;;0.20;0.20;;;;;;;;;;6248043;22;19996;-90
2023/07/25 02:33:36;;;;;;;0.40;0.40;;;;;;;;;;6247573;22;20020;-90
2023/07/25 02:36:10;;;;;;;0.20;0.20;;;;;;;;;;6301215;22;20015;-91
2023/07/25 02:38:55;;;;;;;0.10;0.10;;;;;;;;;;6246919;22;20016;-90
2023/07/25 02:41:40;;;;;;;0.10;0.10;;;;;;;;;;6247089;22;20022;-90
2023/07/25 02:44:30;;;;;;;0.10;0.10;;;;;;;;;;6283273;22;20034;-90
2023/07/25 02:47:03;;;;;;;;;;;;;;;;;;6274025;22;20008;-90
2023/07/25 02:49:31;;;;;;;0.22;0.22;;;;;;;;;;6294960;22;19899;-92
2023/07/25 02:52:01;;;;;;;0.20;0.20;;;;;;;;;;6295509;22;20040;-90
2023/07/25 02:54:31;;;;;;;0.13;0.13;;;;;;;;;;6271316;22;20023;-91
2023/07/25 02:57:10;;;;;;;0.20;0.20;;;;;;;;;;6297270;22;20024;-92
2023/07/25 02:59:40;;;;;;;0.20;0.20;;;;;;;;;;6273578;22;20047;-90
2023/07/25 03:02:23;;;;;;;0.20;0.20;;;;;;;;;;6296078;22;20003;-86
2023/07/25 03:04:54;;;;;;;0.13;0.13;;;;;;;;;;6262944;22;20037;-84
2023/07/25 03:07:21;;;;;;;0.00;0.00;;;;;;;;;;6262625;22;20027;-85
2023/07/25 03:09:48;;;;;;;0.20;0.20;;;;;;;;;;6259176;22;20012;-88
2023/07/25 03:12:17;;;;;;;0.20;0.20;;;;;;;;;;6259037;22;20012;-87
2023/07/25 03:14:46;;;;;;;0.20;0.20;;;;;;;;;;6261183;22;20011;-85
2023/07/25 03:17:15;;;;;;;0.20;0.20;;;;;;;;;;6263266;22;20016;-87
2023/07/25 03:19:45;;;;;;;0.20;0.20;;;;;;;;;;6263054;22;20012;-85
2023/07/25 03:22:29;;;;;;;0.15;0.15;;;;;;;;;;6283000;22;20061;-86
2023/07/25 03:25:02;;;;;;;0.10;0.10;;;;;;;;;;6262032;22;19999;-86
2023/07/25 03:27:28;;;;;;;0.10;0.10;;;;;;;;;;6262254;22;20016;-86
2023/07/25 03:29:54;;;;;;;0.20;0.20;;;;;;;;;;6266929;22;20020;-84
2023/07/25 03:32:21;;;;;;;0.20;0.20;;;;;;;;;;6262374;22;19999;-83
2023/07/25 03:34:51;;;;;;;0.10;0.10;;;;;;;;;;6259923;22;20063;-87
2023/07/25 03:37:24;;;;;;;0.10;0.10;;;;;;;;;;6256955;22;20019;-84
2023/07/25 03:39:53;;;;;;;0.22;0.22;;;;;;;;;;6289674;22;20094;-85
2023/07/25 03:42:32;;;;;;;0.30;0.30;;;;;;;;;;6288004;22;20012;-87
2023/07/25 03:45:10;;;;;;;0.20;0.20;;;;;;;;;;6263754;22;20023;-86
2023/07/25 03:47:42;;;;;;;0.10;0.10;;;;;;;;;;6259361;22;20019;-85
2023/07/25 03:50:16;;;;;;;0.20;0.20;;;;;;;;;;6260011;22;20384;-87
2023/07/25 03:52:45;;;;;;;0.20;0.20;;;;;;;;;;6279864;22;20095;-86
2023/07/25 03:55:13;;;;;;;0.20;0.20;;;;;;;;;;6255250;22;20012;-84
2023/07/25 03:57:49;;;;;;;0.20;0.20;;;;;;;;;;6261558;22;20019;-85
2023/07/25 04:00:16;;;;;;;0.20;0.20;;;;;;;;;;6258182;22;20046;-84
2023/07/25 04:06:04;;;;;;;0.15;0.15;;;;;;;;;;6295715;22;20006;-85
2023/07/25 04:08:32;;;;;;;0.20;0.20;;;;;;;;;;6266784;22;20020;-90
2023/07/25 04:11:02;;;;;;;0.17;0.17;;;;;;;;;;6294994;22;20016;-90
2023/07/25 04:13:37;;;;;;;0.20;0.20;;;;;;;;;;6297568;22;20030;-92
2023/07/25 04:16:25;;;;;;;0.20;0.20;;;;;;;;;;6272668;22;20012;-91
2023/07/25 04:18:54;;;;;;;0.10;0.10;;;;;;;;;;6271522;22;20068;-90
2023/07/25 04:21:24;;;;;;;0.20;0.20;;;;;;;;;;6295346;22;20053;-91
2023/07/25 04:24:05;;;;;;;0.10;0.10;;;;;;;;;;6270899;22;20030;-90
2023/07/25 04:26:53;;;;;;;0.30;0.30;;;;;;;;;;6297996;22;20020;-89
2023/07/25 04:29:21;;;;;;;0.10;0.10;;;;;;;;;;6273418;22;20015;-90
2023/07/25 04:31:50;;;;;;;0.20;0.20;;;;;;;;;;6297632;22;20016;-89
2023/07/25 04:34:16;;;;;;;0.20;0.20;;;;;;;;;;6299376;22;20012;-91
2023/07/25 04:36:47;;;;;;;0.00;0.00;;;;;;;;;;6272513;22;20023;-89
2023/07/25 04:39:16;;;;;;;0.10;0.10;;;;;;;;;;6272410;22;20066;-93
2023/07/25 04:41:43;;;;;;;0.15;0.15;;;;;;;;;;6273319;22;20004;-90
2023/07/25 04:44:16;;;;;;;0.13;0.13;;;;;;;;;;6298927;22;20026;-91
2023/07/25 04:46:59;;;;;;;0.20;0.20;;;;;;;;;;6250996;22;20019;-90
2023/07/25 04:49:28;;;;;;;0.13;0.13;;;;;;;;;;6245918;22;20023;-90
2023/07/25 04:51:57;;;;;;;0.10;0.10;;;;;;;;;;6247336;22;20020;-90
2023/07/25 04:54:33;;;;;;;0.10;0.10;;;;;;;;;;6246610;22;20043;-90
2023/07/25 04:57:10;;;;;;;0.20;0.20;;;;;;;;;;6246262;22;20024;-91
2023/07/25 04:59:38;;;;;;;0.10;0.10;;;;;;;;;;6241395;22;20045;-91
2023/07/25 05:02:08;;;;;;;0.20;0.20;;;;;;;;;;6242562;22;20023;-91
2023/07/25 05:04:34;;;;;;;0.10;0.10;;;;;;;;;;6238120;22;20011;-89
2023/07/25 05:07:10;;;;;;;0.20;0.20;;;;;;;;;;6244264;22;20040;-91
2023/07/25 05:09:39;;;;;;;0.10;0.10;;;;;;;;;;6247400;22;20020;-92
2023/07/25 05:12:10;;;;;;;0.20;0.20;;;;;;;;;;6243445;22;20016;-90
2023/07/25 05:15:17;;;;;;;0.20;0.20;;;;;;;;;;6277634;22;20004;-89
2023/07/25 05:17:53;;;;;;;0.10;0.10;;;;;;;;;;6271659;22;20024;-89
2023/07/25 05:20:26;;;;;;;0.10;0.10;;;;;;;;;;6259521;22;20017;-90
2023/07/25 05:23:01;;;;;;;0.17;0.17;;;;;;;;;;6246182;22;20004;-91
2023/07/25 05:25:29;;;;;;;0.10;0.10;;;;;;;;;;6275937;22;20064;-90
2023/07/25 05:27:57;;;;;;;0.20;0.20;;;;;;;;;;6273794;22;20020;-89
2023/07/25 05:30:40;;;;;;;0.30;0.30;;;;;;;;;;6269470;22;20020;-90
2023/07/25 05:33:13;;;;;;;0.10;0.10;;;;;;;;;;6248067;22;20036;-88
2023/07/25 05:35:45;;;;;;;0.30;0.30;;;;;;;;;;6247842;22;20027;-88
2023/07/25 05:38:20;;;;;;;0.10;0.10;;;;;;;;;;6269985;22;20012;-91
2023/07/25 05:40:53;;;;;;;0.13;0.13;;;;;;;;;;6242872;22;20046;-91
2023/07/25 05:43:22;;;;;;;0.10;0.10;;;;;;;;;;6271333;22;20027;-89
2023/07/25 05:45:52;;;;;;;0.20;0.20;;;;;;;;;;6267314;22;20102;-91
2023/07/25 05:48:20;;;;;;;0.10;0.10;;;;;;;;;;6269622;22;20502;-90
2023/07/25 05:50:56;;;;;;;0.20;0.20;;;;;;;;;;6263375;22;20063;-91
2023/07/25 05:53:25;;;;;;;0.22;0.22;;;;;;;;;;6290621;22;20091;-90
2023/07/25 05:55:53;;;;;;;0.20;0.20;;;;;;;;;;6289589;22;20006;-91
2023/07/25 05:58:31;;;;;;;0.10;0.10;;;;;;;;;;6292510;22;20022;-90
2023/07/25 06:01:00;;;;;;;0.20;0.20;;;;;;;;;;6268206;22;20004;-89
2023/07/25 06:03:31;;;;;;;0.10;0.10;;;;;;;;;;6263237;22;20016;-90
2023/07/25 06:09:19;;;;;;;0.20;0.20;;;;;;;;;;6284312;22;20027;-90
2023/07/25 06:11:59;;;;;;;0.10;0.10;;;;;;;;;;6287591;22;20067;-89
2023/07/25 06:14:25;;;;;;;0.08;0.08;;;;;;;;;;6275105;22;20015;-88
2023/07/25 06:22:18;;;;;;;0.20;0.20;;;;;;;;;;6249118;22;20039;-88
2023/07/25 06:24:52;;;;;;;0.10;0.10;;;;;;;;;;6259950;23;20016;-88
2023/07/25 06:27:21;;;;;;;0.10;0.10;;;;;;;;;;6213927;23;20008;-85
2023/07/25 06:29:47;;;;;;;0.05;0.05;;;;;;;;;;6234711;23;20012;-88
2023/07/25 06:32:13;;;;;;;0.10;0.10;;;;;;;;;;6202546;23;20093;-86
2023/07/25 06:34:39;;;;;;;0.17;0.17;;;;;;;;;;6204302;23;20040;-87
2023/07/25 06:37:08;;;;;;;0.10;0.10;;;;;;;;;;6207992;23;20109;-84
2023/07/25 06:39:43;;;;;;;0.10;0.10;;;;;;;;;;6213642;22;20030;-83
2023/07/25 06:42:09;;;;;;;0.15;0.15;;;;;;;;;;6206196;23;20068;-83
2023/07/25 06:44:41;;;;;;;0.10;0.10;;;;;;;;;;6234766;23;20012;-83
2023/07/25 06:47:08;;;;;;;0.20;0.20;;;;;;;;;;6231481;23;20043;-85
2023/07/25 06:49:38;;;;;;;0.15;0.15;;;;;;;;;;6212175;23;20016;-83
2023/07/25 06:52:05;;;;;;;0.10;0.10;;;;;;;;;;6206309;23;20043;-84
2023/07/25 06:54:33;;;;;;;0.10;0.10;;;;;;;;;;6239094;22;20064;-84
2023/07/25 06:57:01;;;;;;;0.10;0.10;;;;;;;;;;6213986;23;20038;-83
2023/07/25 06:59:29;;;;;;;0.10;0.10;;;;;;;;;;6231097;23;20446;-84
2023/07/25 07:02:01;;;;;;;0.17;0.17;;;;;;;;;;6235664;23;20434;-84
2023/07/25 07:04:33;;;;;;;0.03;0.03;;;;;;;;;;6208410;23;20024;-83
2023/07/25 07:07:00;;;;;;;0.20;0.20;;;;;;;;;;6269227;22;20016;-82
2023/07/25 07:09:26;;;;;;;0.10;0.10;;;;;;;;;;6205641;22;20023;-84
2023/07/25 07:11:55;;;;;;;0.00;0.00;;;;;;;;;;6236463;23;20043;-83
2023/07/25 07:14:23;;;;;;;0.10;0.10;;;;;;;;;;6211744;23;20020;-83
2023/07/25 07:16:49;;;;;;;0.00;0.00;;;;;;;;;;6205643;23;20095;-87
2023/07/25 07:19:21;;;;;;;0.20;0.20;;;;;;;;;;6232728;23;20012;-88
2023/07/25 07:21:47;;;;;;;0.20;0.20;;;;;;;;;;6262207;23;20502;-88
2023/07/25 07:24:13;;;;;;;0.10;0.10;;;;;;;;;;6211784;23;20016;-89
2023/07/25 07:26:39;;;;;;;0.00;0.00;;;;;;;;;;6212046;23;20033;-83
2023/07/25 07:29:14;;;;;;;0.10;0.10;;;;;;;;;;6237296;23;19996;-83
2023/07/25 07:31:45;;;;;;;0.20;0.20;;;;;;;;;;6212465;23;20442;-84
2023/07/25 07:34:15;;;;;;;0.15;0.15;;;;;;;;;;6233823;23;20045;-84
2023/07/25 07:36:45;;;;;;;0.20;0.20;;;;;;;;;;6208318;23;20020;-84
2023/07/25 07:39:11;;;;;;;0.10;0.10;;;;;;;;;;6213901;23;20434;-85
2023/07/25 07:41:38;;;;;;;0.10;0.10;;;;;;;;;;6207529;23;20016;-86
2023/07/25 07:44:07;;;;;;;0.10;0.10;;;;;;;;;;6233375;22;20016;-85
2023/07/25 07:46:40;;;;;;;0.10;0.10;;;;;;;;;;6237716;22;20038;-87
2023/07/25 07:49:06;;;;;;;0.10;0.10;;;;;;;;;;6209913;23;20033;-85
2023/07/25 07:51:32;;;;;;;0.10;0.10;;;;;;;;;;6234366;23;20044;-88
2023/07/25 07:53:59;;;;;;;0.10;0.10;;;;;;;;;;6205928;22;20021;-84
2023/07/25 07:56:26;;;;;;;0.10;0.10;;;;;;;;;;6233031;23;20078;-87
2023/07/25 07:58:55;;;;;;;0.20;0.20;;;;;;;;;;6208328;23;20103;-91
2023/07/25 08:01:35;;;;;;;0.00;0.00;;;;;;;;;;6203356;22;20025;-88
2023/07/25 08:04:13;;;;;;;0.20;0.20;;;;;;;;;;6229513;23;20063;-89
2023/07/25 08:06:42;;;;;;;0.10;0.10;;;;;;;;;;6204617;23;20004;-84
2023/07/25 08:09:09;;;;;;;0.00;0.00;;;;;;;;;;6230056;22;20016;-88
2023/07/25 08:12:03;;;;;;;0.10;0.10;;;;;;;;;;6240046;23;20016;-91
2023/07/25 08:14:38;;;;;;;0.10;0.10;;;;;;;;;;6211429;23;20016;-89
2023/07/25 08:17:11;;;;;;;0.10;0.10;;;;;;;;;;6363215;22;20018;-87
2023/07/25 08:19:41;;;;;;;0.10;0.10;;;;;;;;;;6241712;22;20020;-89
2023/07/25 08:22:07;;;;;;;0.05;0.05;;;;;;;;;;6259864;22;20016;-88
2023/07/25 08:24:36;;;;;;;0.10;0.10;;;;;;;;;;6216108;22;20024;-89
2023/07/25 08:27:03;;;;;;;0.10;0.10;;;;;;;;;;6264613;22;20004;-90
2023/07/25 08:29:34;;;;;;;0.10;0.10;;;;;;;;;;6204166;23;20012;-90
2023/07/25 08:32:07;;;;;;;0.03;0.03;;;;;;;;;;6234503;23;20016;-88
2023/07/25 08:34:37;;;;;;;0.03;0.03;;;;;;;;;;6210548;22;19996;-89
2023/07/25 08:37:06;;;;;;;0.00;0.00;;;;;;;;;;6229029;23;20023;-89
2023/07/25 08:39:52;;;;;;;0.17;0.17;;;;;;;;;;6213001;23;20015;-89
2023/07/25 08:42:18;;;;;;;0.00;0.00;;;;;;;;;;6236936;23;20023;-90
2023/07/25 08:44:48;;;;;;;0.08;0.08;;;;;;;;;;6211958;23;20016;-90
2023/07/25 08:47:19;;;;;;;0.10;0.10;;;;;;;;;;6208824;23;20030;-86
2023/07/25 08:49:57;;;;;;;0.08;0.08;;;;;;;;;;6209795;22;20038;-84
2023/07/25 08:52:27;;;;;;;0.10;0.10;;;;;;;;;;6209073;23;20055;-84
2023/07/25 08:54:53;;;;;;;0.10;0.10;;;;;;;;;;6198645;23;20017;-84
2023/07/25 08:57:19;;;;;;;0.10;0.10;;;;;;;;;;6208429;23;20007;-86
2023/07/25 08:59:48;;;;;;;0.10;0.10;;;;;;;;;;6200391;23;20019;-87
2023/07/25 09:02:18;;;;;;;0.20;0.20;;;;;;;;;;6234632;22;20018;-88
2023/07/25 09:04:48;;;;;;;0.20;0.20;;;;;;;;;;6226098;23;20023;-87
2023/07/25 09:07:17;;;;;;;0.10;0.10;;;;;;;;;;6206364;23;20008;-89
2023/07/25 09:09:44;;;;;;;0.10;0.10;;;;;;;;;;6227886;23;20016;-86
2023/07/25 09:12:11;;;;;;;0.10;0.10;;;;;;;;;;6200096;22;20012;-88
2023/07/25 09:14:57;;;;;;;0.00;0.00;;;;;;;;;;6199822;23;20020;-85
2023/07/25 09:17:23;;;;;;;0.05;0.05;;;;;;;;;;6200416;23;20023;-88
2023/07/25 09:20:05;;;;;;;0.03;0.03;;;;;;;;;;6309179;22;20018;-84
2023/07/25 09:22:37;;;;;;;0.10;0.10;;;;;;;;;;6219543;23;20034;-87
2023/07/25 09:25:08;;;;;;;0.10;0.10;;;;;;;;;;6230308;23;20016;-86
2023/07/25 09:27:38;;;;;;;0.20;0.20;;;;;;;;;;6232584;22;20034;-85
2023/07/25 09:30:33;;;;;;;0.10;0.10;;;;;;;;;;6236713;22;20045;-87
2023/07/25 09:33:01;;;;;;;0.10;0.10;;;;;;;;;;6261794;23;20024;-88
2023/07/25 09:35:27;;;;;;;0.00;0.00;;;;;;;;;;6237581;23;20053;-86
2023/07/25 09:38:03;;;;;;;0.00;0.00;;;;;;;;;;6237067;22;20038;-86
2023/07/25 09:40:40;;;;;;;0.03;0.03;;;;;;;;;;6233417;22;20041;-87
2023/07/25 09:43:32;;;;;;;0.10;0.10;;;;;;;;;;6263275;23;20016;-88
2023/07/25 09:45:58;;;;;;;0.20;0.20;;;;;;;;;;6230884;23;20016;-89
2023/07/25 09:48:28;;;;;;;0.10;0.10;;;;;;;;;;6236228;23;20022;-86
2023/07/25 09:51:02;;;;;;;0.08;0.08;;;;;;;;;;6262842;22;20022;-85
2023/07/25 09:53:42;;;;;;;0.00;0.00;;;;;;;;;;6260416;23;20064;-85
2023/07/25 09:56:10;;;;;;;0.20;0.20;;;;;;;;;;6238397;22;20027;-85
2023/07/25 09:58:39;;;;;;;0.25;0.25;;;;;;;;;;6255603;23;20028;-88
2023/07/25 10:01:18;;;;;;;0.20;0.20;;;;;;;;;;6253454;23;20365;-86
2023/07/25 10:03:45;;;;;;;0.20;0.20;;;;;;;;;;6210963;22;20027;-88
2023/07/25 10:06:17;;;;;;;0.10;0.10;;;;;;;;;;6212299;23;20040;-88
2023/07/25 10:09:04;;;;;;;0.10;0.10;;;;;;;;;;6209399;23;20052;-87
2023/07/25 10:11:31;;;;;;;0.00;0.00;;;;;;;;;;6234887;22;20018;-89
2023/07/25 10:13:59;;;;;;;0.10;0.10;;;;;;;;;;6233480;22;20031;-88
2023/07/25 10:16:25;;;;;;;0.10;0.10;;;;;;;;;;6255219;22;20343;-91
2023/07/25 10:19:03;;;;;;;0.10;0.10;;;;;;;;;;6232218;23;20016;-87
2023/07/25 10:21:51;;;;;;;0.10;0.10;;;;;;;;;;6259261;22;20012;-87
2023/07/25 10:24:20;;;;;;;0.13;0.13;;;;;;;;;;6233764;22;20016;-85
2023/07/25 10:30:22;;;;;;;0.13;0.13;;;;;;;;;;6263779;23;20019;-88
2023/07/25 10:32:54;;;;;;;0.20;0.20;;;;;;;;;;6256204;22;20016;-88
2023/07/25 10:36:16;;;;;;;0.00;0.00;;;;;;;;;;6205753;23;20092;-89
2023/07/25 10:38:54;;;;;;;0.05;0.05;;;;;;;;;;6173529;22;20028;-88
2023/07/25 10:41:32;;;;;;;0.10;0.10;;;;;;;;;;6171847;22;20394;-88
2023/07/25 10:44:01;;;;;;;0.20;0.20;;;;;;;;;;6167885;23;20028;-88
2023/07/25 10:46:50;;;;;;;0.00;0.00;;;;;;;;;;6167814;22;20482;-88
2023/07/25 10:49:34;;;;;;;0.17;0.17;;;;;;;;;;6261780;22;20012;-86
2023/07/25 10:52:03;;;;;;;0.10;0.10;;;;;;;;;;6233141;23;19996;-87
2023/07/25 10:54:31;;;;;;;0.08;0.08;;;;;;;;;;6231626;23;20449;-88
2023/07/25 10:57:07;;;;;;;0.00;0.00;;;;;;;;;;6208439;22;20012;-89
2023/07/25 11:06:16;;;;;;;0.10;0.10;;;;;;;;;;6152308;23;20021;-87
2023/07/25 11:08:42;;;;;;;0.10;0.10;;;;;;;;;;6118770;23;20014;-88
2023/07/25 11:11:13;;;;;;;0.10;0.10;;;;;;;;;;6156713;23;20007;-89
2023/07/25 11:14:12;;;;;;;0.10;0.10;;;;;;;;;;6211294;23;20020;-88
2023/07/25 11:16:53;;;;;;;0.10;0.10;;;;;;;;;;6211684;22;20059;-86
2023/07/25 11:19:25;;;;;;;0.10;0.10;;;;;;;;;;6208520;22;20023;-87
2023/07/25 11:22:13;;;;;;;0.30;0.30;;;;;;;;;;6208110;23;20008;-86
2023/07/25 11:24:41;;;;;;;0.00;0.00;;;;;;;;;;6235878;23;20067;-89
2023/07/25 11:27:07;;;;;;;0.10;0.10;;;;;;;;;;6211614;23;20066;-85
2023/07/25 11:29:33;;;;;;;0.10;0.10;;;;;;;;;;6234897;23;20020;-89
2023/07/25 11:32:13;;;;;;;0.15;0.15;;;;;;;;;;6236412;23;20016;-88
2023/07/25 11:34:43;;;;;;;0.20;0.20;;;;;;;;;;6232905;22;20016;-91
2023/07/25 11:37:11;;;;;;;0.08;0.08;;;;;;;;;;6231608;23;20016;-86
2023/07/25 11:39:38;;;;;;;0.20;0.20;;;;;;;;;;6211984;23;20074;-89
2023/07/25 11:42:07;;;;;;;0.10;0.10;;;;;;;;;;6260986;22;20004;-90
2023/07/25 11:44:34;;;;;;;0.10;0.10;;;;;;;;;;6262333;23;20018;-86
2023/07/25 11:47:00;;;;;;;0.10;0.10;;;;;;;;;;6204159;23;20012;-87
2023/07/25 11:49:26;;;;;;;0.22;0.22;;;;;;;;;;6232781;23;20031;-90
2023/07/25 11:51:56;;;;;;;0.10;0.10;;;;;;;;;;6263969;23;20012;-90
2023/07/25 11:54:22;;;;;;;0.10;0.10;;;;;;;;;;6233790;23;20016;-86
2023/07/25 11:56:51;;;;;;;0.10;0.10;;;;;;;;;;6231044;22;20008;-91
2023/07/25 11:59:22;;;;;;;0.00;0.00;;;;;;;;;;6212084;22;20028;-90
2023/07/25 12:02:06;;;;;;;0.17;0.17;;;;;;;;;;6260319;22;20034;-90
2023/07/25 12:04:41;;;;;;;0.10;0.10;;;;;;;;;;6259032;23;20020;-87
2023/07/25 12:07:09;;;;;;;0.10;0.10;;;;;;;;;;6229684;23;20031;-88
2023/07/25 12:09:36;;;;;;;0.10;0.10;;;;;;;;;;6229716;23;20065;-87
2023/07/25 12:12:02;;;;;;;0.10;0.10;;;;;;;;;;6227831;23;20023;-89
2023/07/25 12:14:31;;;;;;;0.10;0.10;;;;;;;;;;6230769;23;20068;-88
2023/07/25 12:17:03;;;;;;;0.10;0.10;;;;;;;;;;6259143;23;20020;-87
2023/07/25 12:19:35;;;;;;;0.10;0.10;;;;;;;;;;6252977;23;20017;-90
2023/07/25 12:22:07;;;;;;;0.20;0.20;;;;;;;;;;6239007;23;20073;-87
2023/07/25 12:24:40;;;;;;;0.10;0.10;;;;;;;;;;6239005;22;20028;-85
2023/07/25 12:27:16;;;;;;;0.20;0.20;;;;;;;;;;6207497;22;20026;-87
2023/07/25 12:29:43;;;;;;;0.10;0.10;;;;;;;;;;6312664;22;20020;-87
2023/07/25 12:32:13;;;;;;;0.10;0.10;;;;;;;;;;6312746;22;20027;-92
2023/07/25 12:34:45;;;;;;;0.20;0.20;;;;;;;;;;6214329;22;20020;-88
2023/07/25 12:37:16;;;;;;;0.10;0.10;;;;;;;;;;6209502;23;20041;-86
2023/07/25 12:40:12;;;;;;;0.10;0.10;;;;;;;;;;6211205;22;20439;-89
2023/07/25 12:45:49;;;;;;;0.10;0.10;;;;;;;;;;6230503;23;20024;-91
2023/07/25 12:48:17;;;;;;;0.05;0.05;;;;;;;;;;6207574;23;20031;-89
2023/07/25 12:50:45;;;;;;;0.10;0.10;;;;;;;;;;6196848;22;20050;-87
2023/07/25 12:53:14;;;;;;;0.00;0.00;;;;;;;;;;6260403;22;20024;-90
2023/07/25 12:56:02;;;;;;;0.03;0.03;;;;;;;;;;6267606;22;20011;-87
2023/07/25 12:58:28;;;;;;;0.10;0.10;;;;;;;;;;6260572;22;20019;-90
2023/07/25 13:00:55;;;;;;;0.10;0.10;;;;;;;;;;6288468;22;20044;-90
2023/07/25 13:03:30;;;;;;;0.20;0.20;;;;;;;;;;6240051;22;20037;-87
2023/07/25 13:06:07;;;;;;;0.10;0.10;;;;;;;;;;6264286;22;20020;-89
2023/07/25 13:08:39;;;;;;;0.10;0.10;;;;;;;;;;6290664;22;20016;-91
2023/07/25 13:11:29;;;;;;;0.10;0.10;;;;;;;;;;6262041;22;20045;-92
2023/07/25 13:13:55;;;;;;;0.15;0.15;;;;;;;;;;6266189;22;20030;-87
2023/07/25 13:16:22;;;;;;;0.05;0.05;;;;;;;;;;6266671;22;20084;-88
2023/07/25 13:18:48;;;;;;;0.00;0.00;;;;;;;;;;6264347;22;20035;-85
2023/07/25 13:21:15;;;;;;;0.10;0.10;;;;;;;;;;6286458;22;20019;-87
2023/07/25 13:23:42;;;;;;;0.10;0.10;;;;;;;;;;6259358;22;20016;-88
2023/07/25 13:26:11;;;;;;;0.10;0.10;;;;;;;;;;6260741;22;20400;-88
2023/07/25 13:28:38;;;;;;;0.08;0.08;;;;;;;;;;6262587;22;20015;-87
2023/07/25 13:31:06;;;;;;;0.22;0.22;;;;;;;;;;6264932;22;20000;-89
2023/07/25 13:33:33;;;;;;;0.00;0.00;;;;;;;;;;6287971;22;20016;-88
2023/07/25 13:35:59;;;;;;;0.00;0.00;;;;;;;;;;6288705;22;20514;-87
2023/07/25 13:38:27;;;;;;;0.13;0.13;;;;;;;;;;6260059;22;20015;-86
2023/07/25 13:40:58;;;;;;;0.17;0.17;;;;;;;;;;6288336;22;20019;-88
2023/07/25 13:43:25;;;;;;;0.10;0.10;;;;;;;;;;6265756;22;20051;-88
2023/07/25 13:45:51;;;;;;;0.08;0.08;;;;;;;;;;6260784;22;20068;-87
2023/07/25 13:48:20;;;;;;;0.10;0.10;;;;;;;;;;6262373;22;20060;-88
2023/07/25 13:50:50;;;;;;;0.25;0.25;;;;;;;;;;6290972;22;20026;-87
2023/07/25 13:53:16;;;;;;;0.10;0.10;;;;;;;;;;6241946;22;20132;-87
2023/07/25 13:55:42;;;;;;;0.20;0.20;;;;;;;;;;6266489;22;20019;-86
2023/07/25 13:58:09;;;;;;;0.22;0.22;;;;;;;;;;6265933;22;20019;-88
2023/07/25 14:00:35;;;;;;;0.10;0.10;;;;;;;;;;6289963;22;20012;-87
2023/07/25 14:03:01;;;;;;;0.05;0.05;;;;;;;;;;6261684;22;20023;-85
2023/07/25 14:05:30;;;;;;;0.20;0.20;;;;;;;;;;6290022;22;20012;-85
2023/07/25 14:08:00;;;;;;;0.10;0.10;;;;;;;;;;6289498;22;20011;-88
2023/07/25 14:10:26;;;;;;;0.10;0.10;;;;;;;;;;6261347;22;20070;-87
2023/07/25 14:12:56;;;;;;;0.20;0.20;;;;;;;;;;6266867;22;20020;-87
2023/07/25 14:15:22;;;;;;;0.15;0.15;;;;;;;;;;6235880;22;20051;-86
2023/07/25 14:17:54;;;;;;;0.10;0.10;;;;;;;;;;6287447;22;20016;-88
2023/07/25 14:20:21;;;;;;;0.13;0.13;;;;;;;;;;6288646;22;20491;-86
2023/07/25 14:22:47;;;;;;;0.10;0.10;;;;;;;;;;6262985;22;20016;-86
2023/07/25 14:25:14;;;;;;;0.10;0.10;;;;;;;;;;6291398;22;20060;-83
2023/07/25 14:27:48;;;;;;;0.10;0.10;;;;;;;;;;6290439;22;20023;-88
2023/07/25 14:30:18;;;;;;;0.10;0.10;;;;;;;;;;6291495;22;20016;-86
2023/07/25 14:33:09;;;;;;;0.10;0.10;;;;;;;;;;6264988;22;20398;-88
2023/07/25 14:35:41;;;;;;;0.00;0.00;;;;;;;;;;6265818;22;20022;-87
2023/07/25 14:38:13;;;;;;;0.10;0.10;;;;;;;;;;6266371;22;20331;-84
2023/07/25 14:40:39;;;;;;;0.10;0.10;;;;;;;;;;6266482;22;20037;-86
2023/07/25 14:43:41;;;;;;;0.10;0.10;;;;;;;;;;6271330;22;20003;-87
2023/07/25 14:46:10;;;;;;;0.10;0.10;;;;;;;;;;6257869;22;20016;-86
2023/07/25 14:48:36;;;;;;;0.10;0.10;;;;;;;;;;6267377;22;20045;-86
2023/07/25 14:51:15;;;;;;;0.00;0.00;;;;;;;;;;6263423;22;20020;-88
2023/07/25 14:53:41;;;;;;;0.10;0.10;;;;;;;;;;6263186;22;20410;-86
2023/07/25 14:56:07;;;;;;;0.10;0.10;;;;;;;;;;6261805;22;20022;-85
2023/07/25 14:58:33;;;;;;;0.00;0.00;;;;;;;;;;6266574;22;20018;-85
2023/07/25 15:00:59;;;;;;;0.20;0.20;;;;;;;;;;6267023;22;20020;-86
2023/07/25 15:03:29;;;;;;;0.10;0.10;;;;;;;;;;6270772;22;20044;-88
2023/07/25 15:05:58;;;;;;;0.08;0.08;;;;;;;;;;6266579;22;20019;-86
2023/07/25 15:08:24;;;;;;;0.00;0.00;;;;;;;;;;6258746;22;20026;-86
2023/07/25 15:11:17;;;;;;;0.10;0.10;;;;;;;;;;6295382;22;20015;-88
2023/07/25 15:13:43;;;;;;;0.05;0.05;;;;;;;;;;6260433;22;20016;-87
2023/07/25 15:16:38;;;;;;;0.10;0.10;;;;;;;;;;6271672;22;20020;-87
2023/07/25 15:19:24;;;;;;;0.10;0.10;;;;;;;;;;6291810;22;20077;-88
2023/07/25 15:21:51;;;;;;;0.20;0.20;;;;;;;;;;6258220;22;20023;-86
2023/07/25 15:24:26;;;;;;;0.10;0.10;;;;;;;;;;6294471;22;20047;-87
2023/07/25 15:27:11;;;;;;;0.10;0.10;;;;;;;;;;6266821;22;20004;-85
2023/07/25 15:29:50;;;;;;;0.10;0.10;;;;;;;;;;6290753;22;20438;-85
2023/07/25 15:32:20;;;;;;;0.10;0.10;;;;;;;;;;6284970;22;20068;-86
2023/07/25 15:34:48;;;;;;;0.20;0.20;;;;;;;;;;6268406;22;20016;-85
2023/07/25 15:37:27;;;;;;;0.20;0.20;;;;;;;;;;6286208;22;20016;-86
2023/07/25 15:39:53;;;;;;;0.10;0.10;;;;;;;;;;6281514;22;20011;-86
2023/07/25 15:42:20;;;;;;;0.10;0.10;;;;;;;;;;6266654;22;20090;-84